Oreana, Nevada
Current Conditions -  °F | °C
As of 7:53 AM on Saturday 25 Oct 2014 (Local Time) from KLOL Reporting Station
Clear Clear  
Wind Chill: 34°   Ceiling: Unl
Heat Index: 34°   Visibility: 8mi
Dew Point: 18°   Wind: 3mph
Humidity: 52%   Direction: 320°NW
Pressure: 29.9"   Gusts: NA
Location:  40.3545°N, 118.628°W
Report Text: KLOL 251453Z AUTO 32003KT 8SM CLR 01/M08 A2990 RMK AO2 SLP123 T00111078 53000
Loading
Personal Weather Stations






























Interactive Weather Map
Tropical Storm Tracking
New forecast layout! Learn more

10-Day Weather Forecast

Advertisements
Track Severe Weather on mobile